< < Back
Terminal Aerodrome Forecast


Current Version              Previous Versions:   1  2  3  4  5  6  7  8  9  

Terminal Aerodrome Forecast

121
FTUS42 KGSP 202335
TAFAVL
TAF
KAVL 202335Z 2100/2124 20010KT P6SM FEW090 SCT250
     FM210100 34014G25KT P6SM SCT050
     FM210500 35019G26KT P6SM SCT050
     FM211200 34013KT P6SM SCT250
     FM211700 34016G25KT P6SM SCT050 SCT250=

Latest METAR

137
SAUS70 KWBC 210100 RRQ
MTRAVL
METAR KAVL 210054Z 28004KT 10SM SCT070 17/13 A2970 RMK AO2 SLP042
T01670133


USA.gov is the U.S. government's official web portal to all federal, state and local government web resources and services.